• Join FlightAware (Why Join?)
  • Login
  • US Flag 
12:19PM EDT


 

Airport Tracker/Info


-or-


 

Live Flight TrackerFlight Track Log ✈ AFR3552 ✈ 19-Jul-2013 ✈ LFPO / ORY - TFFF / FDF

Flight Track Log - Related Links

Times and Time Zones

All times are in EDT time to prevent confusion due to time zone crossing. See the AFR3552 flight status page for this flight to view local times or setup timezone preferences in your user account.

Time Position Orientation Groundspeed Altitude Reporting Facility
EDT Latitude Longitude Course Direction KTS MPH feet Rate Location/Type
08:25AM 48.7250 2.3570 255° West 11 13  Level FlightAware
08:25AM 48.7240 2.3560 213° Southwest 9 10 180 Level FlightAware
08:26AM 48.7200 2.3590 154° Southeast 16 18 240 Level FlightAware
08:27AM 48.7200 2.3630 90° East 57 66 540 Level FlightAware
08:27AM 48.7210 2.3690 76° East 105 121 900 Level FlightAware
08:28AM 48.7280 2.4080 75° East 181 208 700 2,040 Climbing FlightAware
08:28AM 48.7330 2.4340 74° East 182 209 1,800 1,980 Climbing FlightAware
08:29AM 48.7370 2.4600 77° East 183 211 2,500 1,740 Climbing FlightAware
08:29AM 48.7390 2.5040 86° East 189 217 3,600 1,800 Climbing FlightAware
08:30AM 48.7430 2.5710 85° East 240 276 4,400 1,620 Climbing FlightAware
08:30AM 48.7130 2.6230 131° Southeast 275 316 5,600 1,980 Climbing FlightAware
08:31AM 48.6810 2.6150 189° South 287 330 6,700 2,340 Climbing FlightAware
08:31AM 48.6670 2.5980 219° Southwest 295 339 7,100 2,100 Climbing FlightAware
08:31AM 48.6580 2.5430 256° West 304 350 8,100 2,100 Climbing FlightAware
08:32AM 48.6580 2.5190 270° West 308 354 8,500 2,280 Climbing FlightAware
08:32AM 48.6580 2.4670 270° West 307 353 9,600 1,860 Climbing FlightAware
08:33AM 48.6570 2.3350 269° West 350 403 11,300 1,500 Climbing FlightAware
08:34AM 48.6560 2.1910 269° West 401 461 12,400 1,920 Climbing FlightAware
08:35AM 48.6550 2.0630 269° West 416 479 14,200 2,400 Climbing FlightAware
08:35AM 48.6670 1.9480 279° West 420 483 15,800 2,040 Climbing FlightAware
08:36AM 48.6834 1.8436 279° West 414 476 16,800 1,200 Climbing FlightAware UK
08:36AM 48.6830 1.8510 279° West 436 502 16,700 2,400 Descending FlightAware
08:37AM 48.7048 1.7214 279° West 420 483 18,500 3,060 Climbing FlightAware UK
08:37AM 48.7060 1.7040 279° West 445 512 18,700 2,040 Climbing FlightAware
08:37AM 48.7280 1.5700 284° West 454 522 20,200 1,920 Climbing FlightAware
08:38AM 48.7440 1.4670 283° West 465 535 21,200 1,440 Climbing FlightAware
08:39AM 48.7600 1.3350 280° West 468 539 22,000 1,380 Climbing FlightAware
08:39AM 48.7690 1.1900 275° West 471 542 23,200 1,440 Climbing FlightAware
08:40AM 48.7740 1.1030 275° West 476 548 23,900 1,320 Climbing FlightAware
08:41AM 48.7830 0.9540 275° West 485 558 25,100 1,740 Climbing FlightAware
08:41AM 48.7940 0.7740 275° West 493 567 26,500 1,920 Climbing FlightAware
08:42AM 48.7942 0.7666 275° West 472 543 26,500 1,080 Level FlightAware UK
08:42AM 48.7992 0.6616 275° West 478 550 27,100 1,380 Climbing FlightAware UK
08:42AM 48.7990 0.6350 275° West 502 578 27,400 1,620 Climbing FlightAware
08:43AM 48.7957 0.4927 275° West 490 564 28,400 1,380 Climbing FlightAware UK
08:43AM 48.7970 0.5120 275° West 506 582 28,300 1,560 Descending FlightAware
08:43AM 48.7903 0.3869 275° West 492 566 29,200 1,560 Climbing FlightAware UK
08:43AM 48.7890 0.3530 275° West 511 588 29,400 960 Climbing FlightAware
08:44AM 48.7810 0.2220 265° West 519 597 30,100 1,200 Climbing FlightAware
08:45AM 48.7740 0.1010 265° West 516 594 31,100 1,320 Climbing FlightAware
08:46AM 48.7610 -0.1070 265° West 514 592 32,000 600 Climbing FlightAware
08:46AM 48.7513 -0.2562 265° West 490 564 32,000  Level FlightAware UK
08:47AM 48.7490 -0.3050 265° West 515 593 32,000  Level FlightAware
08:47AM 48.7400 -0.4420 264° West 515 593 32,000  Level FlightAware
08:48AM 48.7310 -0.5800 264° West 514 592 32,000  Level FlightAware
08:49AM 48.7210 -0.7280 264° West 514 592 32,000  Level FlightAware
08:49AM 48.7100 -0.8930 264° West 513 590 32,000  Level FlightAware
08:50AM 48.7000 -1.0380 264° West 512 589 32,000  Level FlightAware
08:51AM 48.6890 -1.1880 264° West 511 588 32,000  Level FlightAware
08:51AM 48.6785 -1.3242 264° West 492 566 32,000  Level FlightAware UK
08:51AM 48.6810 -1.3100 264° West 509 586 32,000  Level FlightAware
08:52AM 48.6710 -1.4410 263° West 510 587 32,000  Level FlightAware
08:53AM 48.6620 -1.5560 263° West 510 587 32,000  Level FlightAware
08:53AM 48.6480 -1.7440 264° West 512 589 32,000  Level FlightAware
08:54AM 48.6380 -1.9010 265° West 512 589 32,000  Level FlightAware
08:55AM 48.6293 -2.0235 265° West 490 564 32,000  Level FlightAware UK
08:55AM 48.6290 -2.0450 265° West 512 589 32,000  Level FlightAware
08:55AM 48.6200 -2.1960 265° West 510 587 32,000  Level FlightAware
08:56AM 48.6120 -2.3200 264° West 510 587 32,000  Level FlightAware
08:57AM 48.5960 -2.5420 264° West 509 586 32,000  Level FlightAware
08:58AM 48.5860 -2.6950 264° West 509 586 32,000  Level FlightAware
08:58AM 48.5760 -2.8390 264° West 509 586 32,000  Level FlightAware
08:59AM 48.5670 -2.9630 264° West 506 582 32,000  Level FlightAware
09:00AM 48.5560 -3.1120 264° West 508 585 32,000  Level FlightAware
09:00AM 48.5460 -3.2510 264° West 509 586 32,000  Level FlightAware
09:01AM 48.5344 -3.3968 264° West 492 566 32,000  Level FlightAware UK
09:01AM 48.5340 -3.4060 264° West 510 587 32,000  Level FlightAware
09:02AM 48.5220 -3.5610 263° West 509 586 32,000  Level FlightAware
09:02AM 48.5170 -3.6320 264° West 509 586 32,000  Level FlightAware
09:04AM 48.4950 -3.9050 263° West 507 583 32,000  Level FlightAware
09:04AM 48.4830 -4.0540 263° West 505 581 32,000  Level FlightAware
09:05AM 48.4700 -4.2090 263° West 505 581 32,000  Level FlightAware
09:06AM 48.4580 -4.3610 263° West 506 582 32,000  Level FlightAware
09:06AM 48.4490 -4.4640 263° West 506 582 32,000  Level FlightAware
09:06AM 48.4431 -4.5305 263° West 490 564 32,000  Level FlightAware UK
09:07AM 48.4339 -4.6348 263° West 488 562 32,000  Level FlightAware UK
09:07AM 48.4260 -4.7240 263° West 509 586 32,000  Level FlightAware
09:08AM 48.4120 -4.8820 262° West 508 585 32,000  Level FlightAware
09:09AM 48.4000 -5.0270 263° West 508 585 32,000  Level FlightAware
09:10AM 48.3870 -5.1670 262° West 508 585 32,000  Level FlightAware
09:10AM 48.3760 -5.2790 262° West 507 583 32,000  Level FlightAware
09:11AM 48.3624 -5.4308 262° West 492 566 32,000  Level FlightAware UK
09:11AM 48.3650 -5.4020 262° West 507 583 32,000  Level FlightAware
09:12AM 48.3440 -5.6250 262° West 506 582 32,000  Level FlightAware
09:12AM 48.3320 -5.7460 262° West 504 580 32,000  Level FlightAware
09:12AM 48.3286 -5.7846 262° West 490 564 32,000  Level FlightAware UK
09:13AM 48.3167 -5.9083 262° West 492 566 32,000  Level FlightAware UK
09:13AM 48.3150 -5.9190 262° West 503 579 32,000  Level FlightAware
09:14AM 48.3010 -6.0630 262° West 503 579 32,000  Level FlightAware
09:14AM 48.2920 -6.1500 261° West 503 579 32,000  Level FlightAware
09:15AM 48.2698 -6.3617 261° West 492 566 32,000  Level FlightAware UK
09:15AM 48.2760 -6.3150 261° West 502 578 32,000  Level FlightAware
09:16AM 48.2593 -6.4645 261° West 488 562 32,000  Level FlightAware UK
09:16AM 48.2560 -6.5090 261° West 503 579 32,000  Level FlightAware
09:17AM 48.2420 -6.6380 261° West 503 579 32,000  Level FlightAware
09:17AM 48.2270 -6.7727 261° West 492 566 32,000  Level FlightAware UK
09:18AM 48.2160 -6.8752 261° West 490 564 32,000  Level FlightAware UK
09:18AM 48.2170 -6.8700 261° West 499 574 32,000  Level FlightAware
09:18AM 48.2029 -6.9970 261° West 492 566 32,000  Level FlightAware UK
09:19AM 48.1980 -7.0450 261° West 497 572 32,000  Level FlightAware
09:20AM 48.1763 -7.2407 261° West 490 564 32,000  Level FlightAware UK
09:20AM 48.1770 -7.2400 261° West 495 570 32,000  Level FlightAware
09:20AM 48.1810 -7.2030 81° East 495 570 32,000  Level FlightAware
09:21AM 48.1680 -7.3090 260° West 495 570 32,000  Level FlightAware
09:21AM 48.1560 -7.4130 260° West 495 570 32,000  Level FlightAware
09:22AM 48.1450 -7.5110 260° West 495 570 32,000 -2,280 Level FlightAware
09:22AM 48.1192 -7.7463 260° West 494 568 30,700 -2,940 Descending FlightAware UK
09:23AM 48.1075 -7.8478 260° West 1 1 30,500 1,620 Descending FlightAware UK
09:23AM 48.1280 -7.6510 260° West 495 570 32,000 1,620 Climbing FlightAware
09:23AM 48.1160 -7.7550 260° West 495 570 32,000  Level FlightAware
09:24AM 48.1020 -7.8720 260° West 495 570 32,000  Level FlightAware
09:25AM 48.0860 -8.0070 260° West 495 570 32,000  Level FlightAware
09:26AM 48.0740 -8.1110 260° West 495 570 32,000  Level FlightAware
09:26AM 48.0620 -8.2140 260° West 495 570 32,000  Level FlightAware
09:27AM 48.0450 -8.3510 260° West 495 570 32,000  Level FlightAware
09:27AM 48.0340 -8.4490 261° West 495 570 32,000  Level FlightAware
09:28AM 48.0180 -8.5870 260° West 495 570 32,000  Level FlightAware
09:29AM 48.0050 -8.6900 259° West 495 570 32,000  Level FlightAware
09:30AM 47.9890 -8.8270 260° West 495 570 32,000  Level FlightAware
09:32AM 47.8945 -9.1549 247° West  Level FlightAware Approximate
09:33AM 47.8426 -9.3333 247° West  Level FlightAware Approximate
09:34AM 47.7904 -9.5113 246° West  Level FlightAware Approximate
09:35AM 47.7379 -9.6890 246° West  Level FlightAware Approximate
09:36AM 47.6852 -9.8663 246° West  Level FlightAware Approximate
09:37AM 47.6322 -10.0432 246° West  Level FlightAware Approximate
09:38AM 47.5789 -10.2198 246° West  Level FlightAware Approximate
09:39AM 47.5253 -10.3960 246° West  Level FlightAware Approximate
09:40AM 47.4715 -10.5719 246° West  Level FlightAware Approximate
09:41AM 47.4174 -10.7474 246° West  Level FlightAware Approximate
09:42AM 47.3630 -10.9225 245° Southwest  Level FlightAware Approximate
09:43AM 47.3084 -11.0973 245° Southwest  Level FlightAware Approximate
09:44AM 47.2535 -11.2717 245° Southwest  Level FlightAware Approximate
09:45AM 47.1983 -11.4457 245° Southwest  Level FlightAware Approximate
09:46AM 47.1429 -11.6194 245° Southwest  Level FlightAware Approximate
09:47AM 47.0872 -11.7927 245° Southwest  Level FlightAware Approximate
09:48AM 47.0313 -11.9657 245° Southwest  Level FlightAware Approximate
09:49AM 46.9751 -12.1383 245° Southwest  Level FlightAware Approximate
09:50AM 46.9186 -12.3105 244° Southwest  Level FlightAware Approximate
09:51AM 46.8619 -12.4824 244° Southwest  Level FlightAware Approximate
09:52AM 46.8049 -12.6539 244° Southwest  Level FlightAware Approximate
09:53AM 46.7476 -12.8251 244° Southwest  Level FlightAware Approximate
09:54AM 46.6903 -12.9959 244° Southwest  Level FlightAware Approximate
09:55AM 46.6334 -13.1670 244° Southwest  Level FlightAware Approximate
09:56AM 46.5763 -13.3377 244° Southwest  Level FlightAware Approximate
09:57AM 46.5189 -13.5080 244° Southwest  Level FlightAware Approximate
09:58AM 46.4613 -13.6779 244° Southwest  Level FlightAware Approximate
09:59AM 46.4034 -13.8475 244° Southwest  Level FlightAware Approximate
10:00AM 46.3452 -14.0168 244° Southwest  Level FlightAware Approximate
10:01AM 46.2868 -14.1856 243° Southwest  Level FlightAware Approximate
10:02AM 46.2282 -14.3541 243° Southwest  Level FlightAware Approximate
10:03AM 46.1693 -14.5223 243° Southwest  Level FlightAware Approximate
10:04AM 46.1102 -14.6901 243° Southwest  Level FlightAware Approximate
10:05AM 46.0508 -14.8575 243° Southwest  Level FlightAware Approximate
10:06AM 45.9910 -15.0245 242° Southwest  Level FlightAware Approximate
10:07AM 45.9301 -15.1904 242° Southwest  Level FlightAware Approximate
10:08AM 45.8689 -15.3559 242° Southwest  Level FlightAware Approximate
10:09AM 45.8075 -15.5211 242° Southwest  Level FlightAware Approximate
10:10AM 45.7458 -15.6859 242° Southwest  Level FlightAware Approximate
10:11AM 45.6840 -15.8503 242° Southwest  Level FlightAware Approximate
10:12AM 45.6218 -16.0144 242° Southwest  Level FlightAware Approximate
10:13AM 45.5595 -16.1781 241° Southwest  Level FlightAware Approximate
10:14AM 45.4969 -16.3415 241° Southwest  Level FlightAware Approximate
10:15AM 45.4342 -16.5046 241° Southwest  Level FlightAware Approximate
10:16AM 45.3719 -16.6659 241° Southwest  Level FlightAware Approximate
10:17AM 45.3094 -16.8268 241° Southwest  Level FlightAware Approximate
10:18AM 45.2466 -16.9874 241° Southwest  Level FlightAware Approximate
10:19AM 45.1836 -17.1476 241° Southwest  Level FlightAware Approximate
10:20AM 45.1204 -17.3074 241° Southwest  Level FlightAware Approximate
10:21AM 45.0570 -17.4669 241° Southwest  Level FlightAware Approximate
10:22AM 44.9933 -17.6261 241° Southwest  Level FlightAware Approximate
10:23AM 44.9295 -17.7849 240° Southwest  Level FlightAware Approximate
10:24AM 44.8654 -17.9433 240° Southwest  Level FlightAware Approximate
10:25AM 44.8011 -18.1014 240° Southwest  Level FlightAware Approximate
10:26AM 44.7365 -18.2591 240° Southwest  Level FlightAware Approximate
10:27AM 44.6718 -18.4165 240° Southwest  Level FlightAware Approximate
10:28AM 44.6068 -18.5735 240° Southwest  Level FlightAware Approximate
10:29AM 44.5416 -18.7302 240° Southwest  Level FlightAware Approximate
10:30AM 44.4763 -18.8865 240° Southwest  Level FlightAware Approximate
10:31AM 44.4107 -19.0425 240° Southwest  Level FlightAware Approximate
10:32AM 44.3448 -19.1982 239° Southwest  Level FlightAware Approximate
10:33AM 44.2788 -19.3534 239° Southwest  Level FlightAware Approximate
10:34AM 44.2126 -19.5084 239° Southwest  Level FlightAware Approximate
10:35AM 44.1461 -19.6629 239° Southwest  Level FlightAware Approximate
10:36AM 44.0795 -19.8172 239° Southwest  Level FlightAware Approximate
10:37AM 44.0126 -19.9711 239° Southwest  Level FlightAware Approximate
10:38AM 43.9396 -20.1191 235° Southwest  Level FlightAware Approximate
10:39AM 43.8650 -20.2656 235° Southwest  Level FlightAware Approximate
10:40AM 43.7901 -20.4117 235° Southwest  Level FlightAware Approximate
10:41AM 43.7152 -20.5574 235° Southwest  Level FlightAware Approximate
10:42AM 43.6400 -20.7028 234° Southwest  Level FlightAware Approximate
10:43AM 43.5646 -20.8478 234° Southwest  Level FlightAware Approximate
10:44AM 43.4891 -20.9924 234° Southwest  Level FlightAware Approximate
10:45AM 43.4133 -21.1367 234° Southwest  Level FlightAware Approximate
10:46AM 43.3374 -21.2806 234° Southwest  Level FlightAware Approximate
10:47AM 43.2613 -21.4241 234° Southwest  Level FlightAware Approximate
10:48AM 43.1851 -21.5673 234° Southwest  Level FlightAware Approximate
10:49AM 43.1086 -21.7102 234° Southwest  Level FlightAware Approximate
10:50AM 43.0320 -21.8527 234° Southwest  Level FlightAware Approximate
10:51AM 42.9552 -21.9948 234° Southwest  Level FlightAware Approximate
10:52AM 42.8783 -22.1366 233° Southwest  Level FlightAware Approximate
10:53AM 42.8011 -22.2780 233° Southwest  Level FlightAware Approximate
10:54AM 42.7238 -22.4190 233° Southwest  Level FlightAware Approximate
10:55AM 42.6463 -22.5597 233° Southwest  Level FlightAware Approximate
10:56AM 42.5686 -22.7001 233° Southwest  Level FlightAware Approximate
10:57AM 42.4908 -22.8401 233° Southwest  Level FlightAware Approximate
10:58AM 42.4128 -22.9798 233° Southwest  Level FlightAware Approximate
10:59AM 42.3346 -23.1191 233° Southwest  Level FlightAware Approximate
11:00AM 42.2562 -23.2581 233° Southwest  Level FlightAware Approximate
11:01AM 42.1777 -23.3967 233° Southwest  Level FlightAware Approximate
11:02AM 42.0991 -23.5350 233° Southwest  Level FlightAware Approximate
11:03AM 42.0202 -23.6729 232° Southwest  Level FlightAware Approximate
11:04AM 41.9412 -23.8105 232° Southwest  Level FlightAware Approximate
11:05AM 41.8620 -23.9478 232° Southwest  Level FlightAware Approximate
11:06AM 41.7827 -24.0847 232° Southwest  Level FlightAware Approximate
11:07AM 41.7032 -24.2213 232° Southwest  Level FlightAware Approximate
11:08AM 41.6236 -24.3575 232° Southwest  Level FlightAware Approximate
11:09AM 41.5437 -24.4934 232° Southwest  Level FlightAware Approximate
11:10AM 41.4637 -24.6290 232° Southwest  Level FlightAware Approximate
11:11AM 41.3836 -24.7642 232° Southwest  Level FlightAware Approximate
11:12AM 41.3033 -24.8991 232° Southwest  Level FlightAware Approximate
11:13AM 41.2229 -25.0337 232° Southwest  Level FlightAware Approximate
11:14AM 41.1423 -25.1679 231° Southwest  Level FlightAware Approximate
11:15AM 41.0615 -25.3018 231° Southwest  Level FlightAware Approximate
11:16AM 40.9806 -25.4354 231° Southwest  Level FlightAware Approximate
11:17AM 40.8995 -25.5687 231° Southwest  Level FlightAware Approximate
11:18AM 40.8183 -25.7016 231° Southwest  Level FlightAware Approximate
11:19AM 40.7369 -25.8342 231° Southwest  Level FlightAware Approximate
11:20AM 40.6554 -25.9665 231° Southwest  Level FlightAware Approximate
11:21AM 40.5737 -26.0984 231° Southwest  Level FlightAware Approximate
11:22AM 40.4919 -26.2300 231° Southwest  Level FlightAware Approximate
11:23AM 40.4099 -26.3613 231° Southwest  Level FlightAware Approximate
11:24AM 40.3278 -26.4923 231° Southwest  Level FlightAware Approximate
11:25AM 40.2455 -26.6230 231° Southwest  Level FlightAware Approximate
11:26AM 40.1631 -26.7534 230° Southwest  Level FlightAware Approximate
11:27AM 40.0805 -26.8834 230° Southwest  Level FlightAware Approximate
11:28AM 39.9978 -27.0131 230° Southwest  Level FlightAware Approximate
11:29AM 39.9149 -27.1425 230° Southwest  Level FlightAware Approximate
11:30AM 39.8319 -27.2716 230° Southwest  Level FlightAware Approximate
11:31AM 39.7488 -27.4004 230° Southwest  Level FlightAware Approximate
11:31AM 39.2220 -28.2430 230° Southwest 479 551 33,500  Level FlightAware
11:32AM 39.6656 -27.5289 230° Southwest  Level FlightAware Approximate
11:32AM 39.1660 -28.3270 229° Southwest 480 552 33,500  Level FlightAware
11:33AM 39.1250 -28.3890 230° Southwest 481 554 33,500  Level FlightAware
11:33AM 39.0460 -28.5080 229° Southwest 482 555 33,500  Level FlightAware
11:34AM 38.9790 -28.6080 229° Southwest 484 557 33,500  Level FlightAware
11:35AM 38.9220 -28.6910 229° Southwest 484 557 33,500  Level FlightAware
11:35AM 38.8840 -28.7480 229° Southwest 487 560 33,500 60 Level FlightAware
11:36AM 38.7910 -28.8860 229° Southwest 486 559 33,600 60 Climbing FlightAware
11:37AM 38.7290 -28.9770 229° Southwest 487 560 33,600  Level FlightAware
11:38AM 38.6710 -29.0630 229° Southwest 488 562 33,600  Level FlightAware
11:38AM 38.6000 -29.1660 229° Southwest 488 562 33,600  Level FlightAware
11:39AM 38.5510 -29.2380 229° Southwest 488 562 33,600  Level FlightAware
11:40AM 38.4960 -29.3180 229° Southwest 489 563 33,600  Level FlightAware
11:40AM 38.4140 -29.4370 229° Southwest 491 565 33,600  Level FlightAware
11:41AM 38.3480 -29.5320 228° Southwest 491 565 33,600  Level FlightAware
11:42AM 38.2840 -29.6250 229° Southwest 492 566 33,600  Level FlightAware
11:43AM 38.2060 -29.7390 229° Southwest 492 566 33,600  Level FlightAware
11:43AM 38.1650 -29.7960 228° Southwest 491 565 33,600  Level FlightAware
11:44AM 38.0830 -29.9140 229° Southwest 491 565 33,600 60 Level FlightAware
11:45AM 38.0170 -30.0130 230° Southwest 480 552 33,700 60 Climbing FlightAware
11:46AM 37.9660 -30.1230 240° Southwest 479 551 33,700  Level FlightAware
11:46AM 37.9100 -30.2540 242° Southwest 479 551 33,700  Level FlightAware
11:47AM 37.8820 -30.3180 241° Southwest 479 551 33,700  Level FlightAware
11:48AM 37.8140 -30.4750 241° Southwest 480 552 33,700  Level FlightAware
11:49AM 37.7670 -30.5870 242° Southwest 480 552 33,700  Level FlightAware
11:50AM 37.7350 -30.6630 242° Southwest 480 552 33,700  Level FlightAware
11:50AM 37.6920 -30.7640 242° Southwest 480 552 33,700  Level FlightAware
11:51AM 37.6600 -30.8420 243° Southwest 480 552 33,700  Level FlightAware
11:52AM 37.6190 -30.9390 242° Southwest 480 552 33,700  Level FlightAware
11:52AM 37.5870 -31.0140 242° Southwest 480 552 33,700  Level FlightAware
11:53AM 37.5440 -31.1150 242° Southwest 480 552 33,700  Level FlightAware
11:54AM 37.5120 -31.1910 242° Southwest 480 552 33,700  Level FlightAware
11:55AM 37.4670 -31.2980 242° Southwest 480 552 33,700  Level FlightAware
11:55AM 37.4350 -31.3740 242° Southwest 480 552 33,700  Level FlightAware
11:56AM 37.4030 -31.4490 242° Southwest 480 552 33,700  Level FlightAware
11:57AM 37.3610 -31.5500 242° Southwest 480 552 33,700  Level FlightAware
11:57AM 37.3290 -31.6250 242° Southwest 480 552 33,700  Level FlightAware
11:58AM 37.2860 -31.7260 242° Southwest 480 552 33,700  Level FlightAware
12:01PM 37.1190 -32.0542 238° Southwest  Level FlightAware Approximate
12:02PM 37.0491 -32.1905 237° Southwest  Level FlightAware Approximate
12:03PM 36.9791 -32.3265 237° Southwest  Level FlightAware Approximate
12:04PM 36.9090 -32.4624 237° Southwest  Level FlightAware Approximate
12:05PM 36.8387 -32.5979 237° Southwest  Level FlightAware Approximate
12:06PM 36.7682 -32.7332 237° Southwest  Level FlightAware Approximate
12:07PM 36.7001 -32.8714 240° Southwest  Level FlightAware Approximate
12:08PM 36.6350 -33.0107 240° Southwest  Level FlightAware Approximate
12:09PM 36.5698 -33.1497 240° Southwest  Level FlightAware Approximate
12:10PM 36.5044 -33.2884 240° Southwest  Level FlightAware Approximate
12:11PM 36.4388 -33.4269 240° Southwest  Level FlightAware Approximate
12:12PM 36.3731 -33.5652 239° Southwest  Level FlightAware Approximate
12:13PM 36.3072 -33.7033 239° Southwest  Level FlightAware Approximate
12:14PM 36.2412 -33.8411 239° Southwest  Level FlightAware Approximate
12:15PM 36.1750 -33.9787 239° Southwest  Level FlightAware Approximate
12:16PM 36.1087 -34.1160 239° Southwest  Level FlightAware Approximate
12:17PM 36.0422 -34.2531 239° Southwest  Level FlightAware Approximate
12:18PM 35.9755 -34.3900 239° Southwest  Level FlightAware Approximate
12:19PM 35.9087 -34.5267 239° Southwest  Level FlightAware Approximate
12:20PM 35.8417 -34.6631 239° Southwest  Level FlightAware Approximate
12:21PM 35.7746 -34.7993 239° Southwest  Level FlightAware Approximate
12:22PM 35.7074 -34.9353 239° Southwest  Level FlightAware Approximate
12:23PM 35.6399 -35.0710 239° Southwest  Level FlightAware Approximate
12:24PM 35.5723 -35.2065 239° Southwest  Level FlightAware Approximate
12:25PM 35.5046 -35.3418 238° Southwest  Level FlightAware Approximate
12:26PM 35.4367 -35.4768 238° Southwest  Level FlightAware Approximate
12:27PM 35.3683 -35.6114 238° Southwest  Level FlightAware Approximate
12:28PM 35.2996 -35.7455 238° Southwest  Level FlightAware Approximate
12:29PM 35.2307 -35.8795 238° Southwest  Level FlightAware Approximate
12:30PM 35.1617 -36.0132 238° Southwest  Level FlightAware Approximate
12:31PM 35.0925 -36.1467 238° Southwest  Level FlightAware Approximate
12:32PM 35.0232 -36.2799 238° Southwest  Level FlightAware Approximate
12:33PM 34.9537 -36.4129 238° Southwest  Level FlightAware Approximate
12:34PM 34.8841 -36.5458 237° Southwest  Level FlightAware Approximate
12:35PM 34.8144 -36.6783 237° Southwest  Level FlightAware Approximate
12:36PM 34.7445 -36.8107 237° Southwest  Level FlightAware Approximate
12:37PM 34.6744 -36.9428 237° Southwest  Level FlightAware Approximate
12:38PM 34.6043 -37.0747 237° Southwest  Level FlightAware Approximate
12:39PM 34.5339 -37.2064 237° Southwest  Level FlightAware Approximate
12:40PM 34.4635 -37.3379 237° Southwest  Level FlightAware Approximate
12:41PM 34.3928 -37.4692 237° Southwest  Level FlightAware Approximate
12:42PM 34.3221 -37.6002 237° Southwest  Level FlightAware Approximate
12:43PM 34.2512 -37.7310 237° Southwest  Level FlightAware Approximate
12:44PM 34.1802 -37.8615 237° Southwest  Level FlightAware Approximate
12:45PM 34.1090 -37.9919 237° Southwest  Level FlightAware Approximate
12:46PM 34.0377 -38.1221 237° Southwest  Level FlightAware Approximate
12:47PM 33.9663 -38.2520 236° Southwest  Level FlightAware Approximate
12:48PM 33.8947 -38.3817 236° Southwest  Level FlightAware Approximate
12:49PM 33.8230 -38.5112 236° Southwest  Level FlightAware Approximate
12:50PM 33.7512 -38.6404 236° Southwest  Level FlightAware Approximate
12:51PM 33.6792 -38.7695 236° Southwest  Level FlightAware Approximate
12:52PM 33.6071 -38.8983 236° Southwest  Level FlightAware Approximate
12:53PM 33.5352 -39.0273 237° Southwest  Level FlightAware Approximate
12:54PM 33.4646 -39.1571 237° Southwest  Level FlightAware Approximate
12:54PM 33.0000 -40.0000 238° Southwest 488 562 34,400  Level New York Oceanic (ODAPS)
12:55PM 33.3938 -39.2867 237° Southwest  Level FlightAware Approximate
12:56PM 33.3230 -39.4161 237° Southwest  Level FlightAware Approximate
12:57PM 33.2520 -39.5453 237° Southwest  Level FlightAware Approximate
12:58PM 33.1808 -39.6742 237° Southwest  Level FlightAware Approximate
12:59PM 33.1095 -39.8030 237° Southwest  Level FlightAware Approximate
01:00PM 33.0381 -39.9316 236° Southwest  Level FlightAware Approximate
01:01PM 32.5611 -40.8242 237° Southwest 488 562 34,400  Level FlightAware Transoceanic
01:02PM 32.4874 -40.9608 237° Southwest 488 562 34,400  Level FlightAware Transoceanic
01:03PM 32.4136 -41.0972 237° Southwest 488 562 34,400  Level FlightAware Transoceanic
01:04PM 32.3396 -41.2333 237° Southwest 488 562 34,400  Level FlightAware Transoceanic
01:05PM 32.2655 -41.3692 237° Southwest 488 562 34,400  Level FlightAware Transoceanic
01:06PM 32.1912 -41.5049 237° Southwest 488 562 34,400  Level FlightAware Transoceanic
01:07PM 32.1168 -41.6404 237° Southwest 488 562 34,400  Level FlightAware Transoceanic
01:08PM 32.0423 -41.7756 237° Southwest 488 562 34,400  Level FlightAware Transoceanic
01:08PM 31.9833 -41.8667 237° Southwest 480 552 34,400  Level New York Oceanic (ODAPS)
01:09PM 31.9676 -41.9107 237° Southwest 488 562 34,400  Level FlightAware Transoceanic
01:10PM 31.8927 -42.0455 237° Southwest 488 562 34,400  Level FlightAware Transoceanic
01:11PM 31.8178 -42.1801 237° Southwest 488 562 34,400  Level FlightAware Transoceanic
01:12PM 31.7426 -42.3144 237° Southwest 488 562 34,400  Level FlightAware Transoceanic
01:13PM 31.6674 -42.4486 237° Southwest 488 562 34,400  Level FlightAware Transoceanic
01:14PM 31.5449 -42.6519 237° Southwest 480 552 34,400  Level FlightAware Transoceanic
01:15PM 31.4714 -42.7821 236° Southwest 480 552 34,400  Level FlightAware Transoceanic
01:16PM 31.3978 -42.9121 236° Southwest 480 552 34,400 60 Level FlightAware Transoceanic
01:16PM 31.4000 -42.9167 236° Southwest 479 551 34,500  Climbing New York Oceanic (ODAPS)
01:17PM 31.3240 -43.0418 236° Southwest 480 552 34,400 -120 Descending FlightAware Transoceanic
01:18PM 31.2500 -43.1713 236° Southwest 480 552 34,400  Level FlightAware Transoceanic
01:19PM 31.1760 -43.3007 236° Southwest 480 552 34,400  Level FlightAware Transoceanic
01:20PM 31.1018 -43.4298 236° Southwest 480 552 34,400  Level FlightAware Transoceanic
01:21PM 31.0275 -43.5588 236° Southwest 480 552 34,400  Level FlightAware Transoceanic
01:22PM 30.9531 -43.6875 236° Southwest 480 552 34,400  Level FlightAware Transoceanic
01:23PM 30.8804 -43.8201 236° Southwest 479 551 34,500  Climbing FlightAware Transoceanic
01:24PM 30.8057 -43.9483 236° Southwest 479 551 34,500  Level FlightAware Transoceanic
01:25PM 30.7308 -44.0764 236° Southwest 479 551 34,500  Level FlightAware Transoceanic
01:26PM 30.6558 -44.2043 236° Southwest 479 551 34,500  Level FlightAware Transoceanic
01:27PM 30.5807 -44.3319 236° Southwest 479 551 34,500  Level FlightAware Transoceanic
01:28PM 30.5055 -44.4594 236° Southwest 479 551 34,500 540 Level FlightAware Transoceanic
01:28PM 30.4667 -44.5167 236° Southwest 486 559 35,500  Climbing New York Oceanic (ODAPS)
01:29PM 30.4301 -44.5867 235° Southwest 479 551 34,500 -840 Descending FlightAware Transoceanic
01:30PM 30.3547 -44.7137 235° Southwest 479 551 34,500  Level FlightAware Transoceanic
01:31PM 30.2791 -44.8406 235° Southwest 479 551 34,500  Level FlightAware Transoceanic
01:32PM 30.2033 -44.9673 235° Southwest 479 551 34,500  Level FlightAware Transoceanic
01:33PM 30.1275 -45.0938 235° Southwest 479 551 34,500  Level FlightAware Transoceanic
01:34PM 30.0515 -45.2200 235° Southwest 479 551 34,500 480 Level FlightAware Transoceanic
01:35PM 30.0073 -45.2862 235° Southwest 486 559 35,500 480 Climbing FlightAware Transoceanic
01:36PM 29.9303 -45.4138 235° Southwest 486 559 35,500  Level FlightAware Transoceanic
01:37PM 29.8532 -45.5411 235° Southwest 486 559 35,500  Level FlightAware Transoceanic
01:38PM 29.7760 -45.6683 235° Southwest 486 559 35,500  Level FlightAware Transoceanic
01:39PM 29.6986 -45.7953 235° Southwest 486 559 35,500  Level FlightAware Transoceanic
01:40PM 29.6211 -45.9221 235° Southwest 486 559 35,500  Level FlightAware Transoceanic
01:41PM 29.5435 -46.0486 235° Southwest 486 559 35,500  Level FlightAware Transoceanic
01:42PM 29.4658 -46.1750 235° Southwest 486 559 35,500  Level FlightAware Transoceanic
01:43PM 29.3880 -46.3012 235° Southwest 486 559 35,500  Level FlightAware Transoceanic
01:44PM 29.3100 -46.4272 235° Southwest 486 559 35,500  Level FlightAware Transoceanic
01:45PM 29.2319 -46.5530 235° Southwest 486 559 35,500  Level FlightAware Transoceanic
01:46PM 29.1537 -46.6786 234° Southwest 486 559 35,500  Level FlightAware Transoceanic
01:47PM 29.0754 -46.8041 234° Southwest 486 559 35,500  Level FlightAware Transoceanic
01:48PM 28.9970 -46.9293 234° Southwest 486 559 35,500  Level FlightAware Transoceanic
01:49PM 28.9184 -47.0543 234° Southwest 486 559 35,500 -600 Level FlightAware Transoceanic
01:49PM 28.8333 -47.2000 234° Southwest 494 568 34,900  Descending New York Oceanic (ODAPS)
01:50PM 28.8398 -47.1792 234° Southwest 486 559 35,500 300 Climbing FlightAware Transoceanic
01:51PM 28.7610 -47.3038 234° Southwest 486 559 35,500  Level FlightAware Transoceanic
01:52PM 28.6821 -47.4283 234° Southwest 486 559 35,500  Level FlightAware Transoceanic
01:53PM 28.6031 -47.5526 234° Southwest 486 559 35,500  Level FlightAware Transoceanic
01:54PM 28.5240 -47.6767 234° Southwest 486 559 35,500 -300 Level FlightAware Transoceanic
01:55PM 28.3390 -47.9731 234° Southwest 494 568 34,900 -300 Descending FlightAware Transoceanic
01:56PM 28.2562 -48.1013 234° Southwest 494 568 34,900  Level FlightAware Transoceanic
01:57PM 28.1733 -48.2292 234° Southwest 494 568 34,900  Level FlightAware Transoceanic
01:58PM 28.0902 -48.3570 234° Southwest 494 568 34,900  Level FlightAware Transoceanic
01:59PM 28.0070 -48.4845 234° Southwest 494 568 34,900  Level FlightAware Transoceanic
02:00PM 27.9237 -48.6119 233° Southwest 494 568 34,900  Level FlightAware Transoceanic
02:01PM 27.8403 -48.7390 233° Southwest 494 568 34,900  Level FlightAware Transoceanic
02:02PM 27.7568 -48.8660 233° Southwest 494 568 34,900  Level FlightAware Transoceanic
02:03PM 27.6732 -48.9928 233° Southwest 494 568 34,900  Level FlightAware Transoceanic
02:04PM 27.5894 -49.1193 233° Southwest 494 568 34,900  Level FlightAware Transoceanic
02:05PM 27.5056 -49.2457 233° Southwest 494 568 34,900  Level FlightAware Transoceanic
02:06PM 27.4216 -49.3719 233° Southwest 494 568 34,900  Level FlightAware Transoceanic
02:07PM 27.3375 -49.4979 233° Southwest 494 568 34,900  Level FlightAware Transoceanic
02:08PM 27.2533 -49.6237 233° Southwest 494 568 34,900  Level FlightAware Transoceanic
02:09PM 27.1690 -49.7493 233° Southwest 494 568 34,900 180 Level FlightAware Transoceanic
02:09PM 27.2167 -49.6667 234° Southwest 468 539 35,200  Climbing New York Oceanic (ODAPS)
02:10PM 27.0845 -49.8748 233° Southwest 494 568 34,900 -180 Descending FlightAware Transoceanic
02:11PM 27.0000 -50.0000 221° Southwest 494 568 34,900  Level FlightAware Transoceanic
02:12PM 26.9002 -50.0973 221° Southwest 494 568 34,900 240 Level FlightAware Transoceanic
02:12PM 27.0000 -50.0000 221° Southwest 475 547 35,200  Climbing New York Oceanic (ODAPS)
02:13PM 26.8003 -50.1944 221° Southwest 494 568 34,900 -180 Descending FlightAware Transoceanic
02:14PM 26.7003 -50.2914 221° Southwest 494 568 34,900 120 Level FlightAware Transoceanic
02:15PM 26.7003 -50.2914 221° Southwest 468 539 35,200 120 Climbing FlightAware Transoceanic
02:16PM 26.6003 -50.3882 221° Southwest 468 539 35,200  Level FlightAware Transoceanic
02:17PM 26.5002 -50.4848 221° Southwest 468 539 35,200  Level FlightAware Transoceanic
02:17PM 26.5000 -50.4833 221° Southwest 477 549 35,200  Level New York Oceanic (ODAPS)
02:18PM 26.4000 -50.5813 221° Southwest 475 547 35,200  Level FlightAware Transoceanic
02:19PM 26.2998 -50.6775 221° Southwest 475 547 35,200  Level FlightAware Transoceanic
02:20PM 26.1995 -50.7737 221° Southwest 475 547 35,200  Level FlightAware Transoceanic
02:21PM 26.0991 -50.8696 221° Southwest 475 547 35,200  Level FlightAware Transoceanic
02:22PM 25.9987 -50.9654 221° Southwest 475 547 35,200  Level FlightAware Transoceanic
02:23PM 25.8981 -51.0597 221° Southwest 477 549 35,200  Level FlightAware Transoceanic
02:24PM 25.7975 -51.1552 220° Southwest 477 549 35,200  Level FlightAware Transoceanic
02:25PM 25.6969 -51.2505 220° Southwest 477 549 35,200  Level FlightAware Transoceanic
02:26PM 25.5963 -51.3456 220° Southwest 477 549 35,200  Level FlightAware Transoceanic
02:27PM 25.4955 -51.4406 220° Southwest 477 549 35,200  Level FlightAware Transoceanic
02:28PM 25.3947 -51.5355 220° Southwest 477 549 35,200  Level FlightAware Transoceanic
02:29PM 25.2939 -51.6301 220° Southwest 477 549 35,200 120 Level FlightAware Transoceanic
02:29PM 25.2833 -51.6500 220° Southwest 471 542 35,400  Climbing New York Oceanic (ODAPS)
02:30PM 25.1930 -51.7247 220° Southwest 477 549 35,200 -180 Descending FlightAware Transoceanic
02:31PM 25.0920 -51.8190 220° Southwest 477 549 35,200 120 Level FlightAware Transoceanic
02:31PM 25.1333 -51.7833 220° Southwest 470 541 35,400  Climbing New York Oceanic (ODAPS)
02:32PM 24.9910 -51.9132 220° Southwest 477 549 35,200 -180 Descending FlightAware Transoceanic
02:33PM 24.8899 -52.0073 220° Southwest 477 549 35,200  Level FlightAware Transoceanic
02:34PM 24.7887 -52.1012 220° Southwest 477 549 35,200  Level FlightAware Transoceanic
02:35PM 24.6875 -52.1950 220° Southwest 477 549 35,200 60 Level FlightAware Transoceanic
02:36PM 24.5865 -52.2972 220° Southwest 471 542 35,400 60 Climbing FlightAware Transoceanic
02:37PM 24.5315 -52.3417 220° Southwest 470 541 35,400  Level FlightAware Transoceanic
02:38PM 24.4310 -52.4342 220° Southwest 470 541 35,400  Level FlightAware Transoceanic
02:39PM 24.3305 -52.5266 220° Southwest 470 541 35,400  Level FlightAware Transoceanic
02:40PM 24.2299 -52.6188 220° Southwest 470 541 35,400  Level FlightAware Transoceanic
02:41PM 24.1292 -52.7109 220° Southwest 470 541 35,400  Level FlightAware Transoceanic
02:42PM 24.0285 -52.8029 220° Southwest 470 541 35,400  Level FlightAware Transoceanic
02:43PM 23.9277 -52.8947 220° Southwest 470 541 35,400  Level FlightAware Transoceanic
02:44PM 23.8269 -52.9864 220° Southwest 470 541 35,400  Level FlightAware Transoceanic
02:45PM 23.7260 -53.0779 220° Southwest 470 541 35,400  Level FlightAware Transoceanic
02:46PM 23.6251 -53.1693 220° Southwest 470 541 35,400  Level FlightAware Transoceanic
02:47PM 23.5241 -53.2605 220° Southwest 470 541 35,400  Level FlightAware Transoceanic
02:48PM 23.4230 -53.3516 220° Southwest 470 541 35,400  Level FlightAware Transoceanic
02:49PM 23.3219 -53.4425 220° Southwest 470 541 35,400 60 Level FlightAware Transoceanic
02:49PM 23.2833 -53.4667 220° Southwest 475 547 35,600  Climbing New York Oceanic (ODAPS)
02:50PM 23.2208 -53.5334 219° Southwest 470 541 35,400 -180 Descending FlightAware Transoceanic
02:51PM 23.1196 -53.6240 219° Southwest 470 541 35,400  Level FlightAware Transoceanic
02:52PM 23.0183 -53.7146 219° Southwest 470 541 35,400  Level FlightAware Transoceanic
02:53PM 22.9170 -53.8050 219° Southwest 470 541 35,400  Level FlightAware Transoceanic
02:54PM 22.8157 -53.8953 219° Southwest 470 541 35,400 180 Level FlightAware Transoceanic
02:54PM 22.8833 -53.8333 219° Southwest 475 547 35,600  Climbing New York Oceanic (ODAPS)
02:55PM 22.7142 -53.9854 219° Southwest 470 541 35,400  Descending FlightAware Transoceanic
02:56PM 22.6682 -54.0171 219° Southwest 475 547 35,600 60 Climbing FlightAware Transoceanic
02:57PM 22.5655 -54.1083 219° Southwest 475 547 35,600  Level FlightAware Transoceanic
02:58PM 22.4627 -54.1994 219° Southwest 475 547 35,600  Level FlightAware Transoceanic
02:59PM 22.3599 -54.2904 219° Southwest 475 547 35,600 60 Level FlightAware Transoceanic
02:59PM 22.3667 -54.2833 219° Southwest 476 548 35,700  Climbing New York Oceanic (ODAPS)
03:00PM 22.2657 -54.3806 219° Southwest 475 547 35,600 -120 Descending FlightAware Transoceanic
03:01PM 22.1626 -54.4713 219° Southwest 475 547 35,600  Level FlightAware Transoceanic
03:02PM 22.0594 -54.5619 219° Southwest 475 547 35,600  Level FlightAware Transoceanic
03:03PM 21.9562 -54.6524 219° Southwest 475 547 35,600  Level FlightAware Transoceanic
03:04PM 21.8529 -54.7427 219° Southwest 475 547 35,600  Level FlightAware Transoceanic
03:05PM 21.7478 -54.8275 219° Southwest 476 548 35,700 180 Climbing FlightAware Transoceanic
03:05PM 21.6667 -54.9000 219° Southwest 477 549 36,000  Climbing New York Oceanic (ODAPS)
03:06PM 21.6445 -54.9177 219° Southwest 476 548 35,700 -300 Descending FlightAware Transoceanic
03:07PM 21.5411 -55.0078 219° Southwest 476 548 35,700  Level FlightAware Transoceanic
03:08PM 21.4377 -55.0978 219° Southwest 476 548 35,700  Level FlightAware Transoceanic
03:09PM 21.3342 -55.1876 219° Southwest 476 548 35,700  Level FlightAware Transoceanic
03:10PM 21.2307 -55.2773 219° Southwest 476 548 35,700 240 Level FlightAware Transoceanic
03:10PM 21.2167 -55.3000 219° Southwest 478 550 36,000  Climbing New York Oceanic (ODAPS)
03:11PM 21.1272 -55.3669 219° Southwest 476 548 35,700  Descending FlightAware Transoceanic
03:12PM 21.0420 -55.4419 219° Southwest 477 549 36,000 120 Climbing FlightAware Transoceanic
03:13PM 20.9377 -55.5317 219° Southwest 477 549 36,000  Level FlightAware Transoceanic
03:14PM 20.8334 -55.6215 219° Southwest 477 549 36,000  Level FlightAware Transoceanic
03:15PM 20.7290 -55.7111 219° Southwest 477 549 36,000  Level FlightAware Transoceanic
03:16PM 20.5973 -55.8312 219° Southwest 478 550 36,000  Level FlightAware Transoceanic
03:17PM 20.4939 -55.9193 219° Southwest 478 550 36,000  Level FlightAware Transoceanic
03:18PM 20.3905 -56.0073 219° Southwest 478 550 36,000  Level FlightAware Transoceanic
03:19PM 20.2870 -56.0952 219° Southwest 478 550 36,000  Level FlightAware Transoceanic
03:20PM 20.1835 -56.1829 218° Southwest 478 550 36,000  Level FlightAware Transoceanic
03:21PM 20.0799 -56.2706 218° Southwest 478 550 36,000  Level FlightAware Transoceanic
03:22PM 19.9763 -56.3581 218° Southwest 478 550 36,000  Level FlightAware Transoceanic
03:23PM 19.8727 -56.4455 218° Southwest 478 550 36,000  Level FlightAware Transoceanic
03:24PM 19.7690 -56.5328 218° Southwest 478 550 36,000  Level FlightAware Transoceanic
03:25PM 19.6652 -56.6200 218° Southwest 478 550 36,000  Level FlightAware Transoceanic
03:26PM 19.5615 -56.7070 218° Southwest 478 550 36,000  Level FlightAware Transoceanic
03:27PM 19.4576 -56.7940 218° Southwest 478 550 36,000  Level FlightAware Transoceanic
03:28PM 19.3538 -56.8808 218° Southwest 478 550 36,000  Level FlightAware Transoceanic
03:29PM 19.2499 -56.9676 218° Southwest 478 550 36,000  Level FlightAware Transoceanic
03:30PM 19.1460 -57.0542 218° Southwest 478 550 36,000  Level FlightAware Transoceanic
03:30PM 19.0833 -57.1000 218° Southwest 484 557 36,000  Level New York Oceanic (ODAPS)
03:31PM 19.0420 -57.1407 218° Southwest 478 550 36,000  Level FlightAware Transoceanic
03:32PM 18.9380 -57.2271 218° Southwest 478 550 36,000  Level FlightAware Transoceanic
03:33PM 18.8339 -57.3134 218° Southwest 478 550 36,000  Level FlightAware Transoceanic
03:34PM 18.7298 -57.3996 218° Southwest 478 550 36,000  Level FlightAware Transoceanic
03:35PM 18.6257 -57.4857 218° Southwest 478 550 36,000  Level FlightAware Transoceanic
03:36PM 18.4930 -57.5923 218° Southwest 484 557 36,000  Level FlightAware Transoceanic
03:37PM 18.3944 -57.6740 218° Southwest 484 557 36,000  Level FlightAware Transoceanic
03:38PM 18.2959 -57.7557 218° Southwest 484 557 36,000  Level FlightAware Transoceanic
03:39PM 18.1973 -57.8372 218° Southwest 484 557 36,000  Level FlightAware Transoceanic
03:40PM 18.0987 -57.9187 218° Southwest 484 557 36,000  Level FlightAware Transoceanic
03:41PM 18.0000 -58.0000 221° Southwest 484 557 36,000  Level FlightAware Transoceanic
03:42PM 17.8983 -58.0924 221° Southwest 484 557 36,000  Level FlightAware Transoceanic
03:43PM 17.7965 -58.1847 221° Southwest 484 557 36,000  Level FlightAware Transoceanic
03:44PM 17.6947 -58.2769 221° Southwest 484 557 36,000  Level FlightAware Transoceanic
03:45PM 17.5929 -58.3690 221° Southwest 484 557 36,000  Level FlightAware Transoceanic
03:46PM 17.4910 -58.4610 221° Southwest 484 557 36,000  Level FlightAware Transoceanic
03:47PM 17.3890 -58.5529 221° Southwest 484 557 36,000  Level FlightAware Transoceanic
03:48PM 17.2871 -58.6447 221° Southwest 484 557 36,000  Level FlightAware Transoceanic
03:49PM 17.1850 -58.7364 221° Southwest 484 557 36,000  Level FlightAware Transoceanic
03:49PM 17.2120 -58.7350 221° Southwest 477 549 36,000  Level FlightAware
03:49PM 17.1090 -58.8270 220° Southwest 479 551 36,000  Level FlightAware
03:50PM 17.0390 -58.8900 221° Southwest 479 551 36,000  Level FlightAware
03:51PM 16.9620 -58.9590 221° Southwest 480 552 36,000  Level FlightAware
03:52PM 16.8740 -59.0370 220° Southwest 481 554 36,000  Level FlightAware
03:52PM 16.8180 -59.0870 221° Southwest 481 554 36,000  Level FlightAware
03:53PM 16.7520 -59.1470 221° Southwest 482 555 36,000  Level FlightAware
03:54PM 16.6730 -59.2170 220° Southwest 483 556 36,000  Level FlightAware
03:55PM 16.5740 -59.3050 220° Southwest 482 555 36,000  Level FlightAware
03:55PM 16.5130 -59.3600 221° Southwest 483 556 36,000  Level FlightAware
03:56PM 16.4330 -59.4300 220° Southwest 482 555 36,000  Level FlightAware
03:57PM 16.3680 -59.4880 221° Southwest 483 556 36,000  Level FlightAware
03:57PM 16.3050 -59.5410 219° Southwest 483 556 36,000  Level FlightAware
03:58PM 16.2440 -59.5940 220° Southwest 482 555 36,000  Level FlightAware
03:59PM 16.1840 -59.6450 219° Southwest 482 555 36,000  Level FlightAware
03:59PM 16.0770 -59.7360 219° Southwest 483 556 36,000  Level FlightAware
04:00PM 16.0250 -59.7800 219° Southwest 483 556 36,000  Level FlightAware
04:01PM 15.9670 -59.8300 220° Southwest 483 556 36,000 -1,140 Level FlightAware
04:01PM 15.8910 -59.8940 219° Southwest 481 554 34,500 -3,000 Descending FlightAware
04:02PM 15.8200 -59.9550 220° Southwest 491 565 32,200 -2,700 Descending FlightAware
04:02PM 15.7820 -59.9870 219° Southwest 493 567 31,100 -2,280 Descending FlightAware
04:03PM 15.6930 -60.0630 219° Southwest 484 557 29,000 -2,940 Descending FlightAware
04:04PM 15.6150 -60.1290 219° Southwest 477 549 27,300 -2,640 Descending FlightAware
04:05PM 15.5400 -60.1950 220° Southwest 469 540 25,600 -2,220 Descending FlightAware
04:05PM 15.4910 -60.2390 221° Southwest 465 535 24,500 -2,280 Descending FlightAware
04:06PM 15.4070 -60.3120 220° Southwest 458 527 22,600 -2,160 Descending FlightAware
04:07PM 15.3570 -60.3560 220° Southwest 452 520 21,400 -1,980 Descending FlightAware
04:07PM 15.2940 -60.4110 220° Southwest 445 512 20,000 -2,220 Descending FlightAware
04:08PM 15.2100 -60.4840 220° Southwest 434 499 18,200 -2,340 Descending FlightAware
04:08PM 15.1640 -60.5240 220° Southwest 430 495 17,100 -2,160 Descending FlightAware
04:09PM 15.0990 -60.5810 220° Southwest 422 486 15,600 -1,920 Descending FlightAware
04:10PM 15.0390 -60.6340 220° Southwest 416 479 14,300 -1,980 Descending FlightAware
04:11PM 14.9580 -60.7040 220° Southwest 409 471 12,500 -1,920 Descending FlightAware
04:11PM 14.9100 -60.7460 220° Southwest 405 466 11,400 -1,380 Descending FlightAware
04:12PM 14.8660 -60.7840 220° Southwest 390 449 10,800 -900 Descending FlightAware
04:13PM 14.7750 -60.8630 220° Southwest 349 402 10,000 -780 Descending FlightAware
04:13PM 14.7500 -60.8840 219° Southwest 339 390 9,800 -960 Descending FlightAware
04:14PM 14.7110 -60.9180 220° Southwest 328 377 9,300 -1,140 Descending FlightAware
04:14PM 14.6790 -60.9460 220° Southwest 325 374 8,700 -1,320 Descending FlightAware
04:15PM 14.6510 -60.9710 221° Southwest 320 368 8,200 -1,020 Descending FlightAware
04:15PM 14.6410 -60.9790 218° Southwest 318 366 8,100 -780 Descending FlightAware
04:16PM 14.6160 -61.0010 220° Southwest 316 364 7,600 -1,140 Descending FlightAware
04:16PM 14.5770 -61.0470 229° Southwest 320 368 6,800 -780 Descending FlightAware
04:17PM 14.5580 -61.0740 234° Southwest 320 368 6,800  Level FlightAware
04:19PM 14.5667 -61.0000 136° Southeast  Level FlightAware Approximate
04:20PM 14.5910 -61.0032 136° Southeast  Level Estimated
04:21PM 14.5910 -61.0032 136° Southeast  Level Estimated
04:22PM 14.5910 -61.0032 136° Southeast  Level Estimated
04:23PM 14.5910 -61.0032 136° Southeast  Level Estimated
04:24PM 14.5910 -61.0032 136° Southeast  Level Estimated
04:25PM 14.5910 -61.0032 136° Southeast  Level Estimated
04:26PM 14.5910 -61.0032 136° Southeast  Level Estimated
04:27PM 14.5910 -61.0032 136° Southeast  Level Estimated
04:28PM 14.5910 -61.0032 136° Southeast  Level Estimated
04:29PM 14.5910 -61.0032 136° Southeast  Level Estimated
04:30PM 14.5910 -61.0032 136° Southeast  Level Estimated
04:31PM 14.5910 -61.0032 136° Southeast  Level Estimated
04:32PM 14.5910 -61.0032 136° Southeast  Level Estimated
04:33PM 14.5910 -61.0032 136° Southeast  Level Estimated